createdAt,value
2018-06-27T00:04:54.930Z,99.90
2018-06-27T00:35:18.314Z,99.90
2018-06-27T00:55:33.889Z,99.90
2018-06-27T01:20:54.058Z,99.90
2018-06-27T01:31:01.925Z,99.90
2018-06-27T01:36:06.275Z,99.90
2018-06-27T01:56:22.298Z,99.90
2018-06-27T02:52:04.941Z,99.90
2018-06-27T02:57:08.981Z,99.90
2018-06-27T03:07:16.863Z,99.90
2018-06-27T03:12:20.888Z,99.90
2018-06-27T03:17:25.034Z,99.90
2018-06-27T03:37:40.504Z,99.90
2018-06-27T03:42:44.537Z,99.90
2018-06-27T03:47:48.626Z,99.90
2018-06-27T03:52:52.654Z,99.90
2018-06-27T03:57:56.798Z,99.90
2018-06-27T04:03:00.887Z,99.90
2018-06-27T04:08:05.070Z,99.90
2018-06-27T04:23:16.842Z,99.90
2018-06-27T04:33:25.287Z,99.90
2018-06-27T05:03:48.700Z,99.90
2018-06-27T05:19:00.489Z,99.90
2018-06-27T05:24:04.648Z,99.90
2018-06-27T05:29:08.745Z,99.90
2018-06-27T05:34:12.854Z,98.90
2018-06-27T05:39:17.001Z,97.70
2018-06-27T06:45:08.654Z,80.70
2018-06-27T06:50:12.750Z,77.50
2018-06-27T07:10:28.402Z,74.70
2018-06-27T07:40:51.842Z,70.20
2018-06-27T07:50:59.861Z,71.50
2018-06-27T07:56:03.944Z,70.20
2018-06-27T08:06:11.929Z,68.70
2018-06-27T08:11:16.019Z,67.40
2018-06-27T08:21:23.970Z,66.00
2018-06-27T08:31:31.925Z,62.30
2018-06-27T08:41:40.392Z,62.10
2018-06-27T08:56:52.586Z,58.60
2018-06-27T09:01:56.679Z,58.00
2018-06-27T09:12:04.592Z,57.80
2018-06-27T09:27:16.395Z,55.10
2018-06-27T09:37:24.342Z,52.70
2018-06-27T09:47:32.273Z,56.90
2018-06-27T09:52:36.386Z,56.40
2018-06-27T10:02:44.469Z,54.40
2018-06-27T10:12:52.778Z,57.40
2018-06-27T10:23:01.198Z,57.00
2018-06-27T10:33:09.498Z,59.40
2018-06-27T10:38:13.651Z,59.40
2018-06-27T10:48:21.630Z,61.00
2018-06-27T10:58:29.799Z,63.70
2018-06-27T11:28:53.186Z,57.40
2018-06-27T11:54:12.702Z,56.70
2018-06-27T11:59:16.901Z,55.20
2018-06-27T12:09:25.191Z,55.40
2018-06-27T12:24:37.052Z,55.50
2018-06-27T12:39:48.835Z,55.70
2018-06-27T12:44:53.903Z,54.80
2018-06-27T12:55:03.343Z,52.80
2018-06-27T13:00:09.206Z,53.00
2018-06-27T13:15:20.932Z,52.50
2018-06-27T13:20:25.035Z,51.70
2018-06-27T13:25:29.129Z,50.60
2018-06-27T13:45:45.533Z,50.60
2018-06-27T14:00:57.342Z,50.40
2018-06-27T14:06:01.462Z,50.60
2018-06-27T14:21:13.306Z,47.60
2018-06-27T14:26:17.386Z,46.70
2018-06-27T14:31:21.495Z,47.70
2018-06-27T15:16:56.614Z,40.00
2018-06-27T15:42:16.327Z,39.60
2018-06-27T15:52:24.347Z,40.10
2018-06-27T17:03:18.774Z,45.60
2018-06-27T17:13:26.728Z,46.00
2018-06-27T17:18:30.827Z,44.80
2018-06-27T17:23:34.905Z,45.00
2018-06-27T17:28:39.007Z,45.70
2018-06-27T18:14:15.397Z,45.60
2018-06-27T18:54:46.483Z,48.00
2018-06-27T19:04:54.490Z,49.10
2018-06-27T19:15:02.442Z,50.10
2018-06-27T20:26:00.495Z,65.10
2018-06-27T20:31:05.425Z,66.70
2018-06-27T20:56:25.546Z,72.10
2018-06-27T21:11:37.496Z,75.50
2018-06-27T21:26:49.271Z,78.50
2018-06-27T22:07:20.547Z,81.60
2018-06-27T22:12:24.602Z,81.80
2018-06-27T22:17:28.754Z,82.30
2018-06-27T22:32:40.594Z,83.40
2018-06-27T22:42:48.556Z,84.20
2018-06-27T22:58:00.322Z,86.00
2018-06-27T23:33:27.514Z,88.90
2018-06-27T23:38:31.613Z,89.50
2018-06-27T23:43:35.678Z,90.00
